createdAt,value
2018-05-21T00:01:37.046Z,99.90
2018-05-21T00:04:04.539Z,99.90
2018-05-21T00:06:32.070Z,99.90
2018-05-21T00:08:59.557Z,99.90
2018-05-21T00:11:27.081Z,99.90
2018-05-21T00:13:54.577Z,99.90
2018-05-21T00:16:22.868Z,99.90
2018-05-21T00:18:51.121Z,99.90
2018-05-21T00:21:18.680Z,99.90
2018-05-21T00:23:46.173Z,99.90
2018-05-21T00:26:13.683Z,99.90
2018-05-21T00:28:41.225Z,99.90
2018-05-21T00:31:08.709Z,99.90
2018-05-21T00:33:36.233Z,99.90
2018-05-21T00:36:03.731Z,99.90
2018-05-21T00:38:31.261Z,99.90
2018-05-21T00:40:58.755Z,99.90
2018-05-21T00:43:26.289Z,99.90
2018-05-21T00:45:53.788Z,99.90
2018-05-21T00:48:21.305Z,99.90
2018-05-21T00:50:48.790Z,99.90
2018-05-21T00:53:17.090Z,99.90
2018-05-21T00:55:44.577Z,99.90
2018-05-21T00:58:12.097Z,99.90
2018-05-21T01:00:39.586Z,99.90
2018-05-21T01:03:07.137Z,99.90
2018-05-21T01:05:34.629Z,99.90
2018-05-21T01:08:02.190Z,99.90
2018-05-21T01:10:29.690Z,99.90
2018-05-21T01:12:57.176Z,99.90
2018-05-21T01:15:24.702Z,99.90
2018-05-21T01:17:52.205Z,99.90
2018-05-21T01:20:19.733Z,99.90
2018-05-21T01:22:47.229Z,99.90
2018-05-21T01:25:15.869Z,99.90
2018-05-21T01:27:43.357Z,99.90
2018-05-21T01:30:10.881Z,99.90
2018-05-21T01:32:39.141Z,99.90
2018-05-21T01:35:06.669Z,99.90
2018-05-21T01:37:34.158Z,99.90
2018-05-21T01:40:01.674Z,99.90
2018-05-21T01:42:29.165Z,99.90
2018-05-21T01:44:56.681Z,99.90
2018-05-21T01:47:24.194Z,99.90
2018-05-21T01:49:52.504Z,99.90
2018-05-21T01:52:19.994Z,99.90
2018-05-21T01:54:47.501Z,99.90
2018-05-21T01:57:15.007Z,99.90
2018-05-21T01:59:42.491Z,99.90
2018-05-21T02:02:10.007Z,99.90
2018-05-21T02:04:37.510Z,99.90
2018-05-21T02:07:05.839Z,99.90
2018-05-21T02:09:33.285Z,99.90
2018-05-21T02:12:00.785Z,99.90
2018-05-21T02:14:28.313Z,99.90
2018-05-21T02:16:55.796Z,99.90
2018-05-21T02:19:23.304Z,99.90
2018-05-21T02:21:50.790Z,99.90
2018-05-21T02:24:18.299Z,99.90
2018-05-21T02:26:46.555Z,99.90
2018-05-21T02:29:14.041Z,99.90
2018-05-21T02:31:41.627Z,99.90
2018-05-21T02:34:09.882Z,99.90
2018-05-21T02:36:37.365Z,99.90
2018-05-21T02:39:05.781Z,99.90
2018-05-21T02:41:34.046Z,99.90
2018-05-21T02:44:01.581Z,99.90
2018-05-21T02:46:29.074Z,99.90
2018-05-21T02:48:56.614Z,99.90
2018-05-21T02:51:24.099Z,99.90
2018-05-21T02:53:52.263Z,99.90
2018-05-21T02:56:19.757Z,99.90
2018-05-21T02:58:47.280Z,99.90
2018-05-21T03:01:14.786Z,99.90
2018-05-21T03:03:42.326Z,99.90
2018-05-21T03:06:09.822Z,99.90
2018-05-21T03:08:37.361Z,99.90
2018-05-21T03:11:04.854Z,99.90
2018-05-21T03:13:32.377Z,99.90
2018-05-21T03:15:59.869Z,99.90
2018-05-21T03:18:28.126Z,99.90
2018-05-21T03:20:55.663Z,99.90
2018-05-21T03:23:23.157Z,99.90
2018-05-21T03:25:50.677Z,99.90
2018-05-21T03:28:18.945Z,99.90
2018-05-21T03:30:46.454Z,99.90
2018-05-21T03:33:13.985Z,99.90
2018-05-21T03:35:41.502Z,99.90
2018-05-21T03:38:09.775Z,99.90
2018-05-21T03:40:37.306Z,99.90
2018-05-21T03:43:04.821Z,99.90
2018-05-21T03:45:32.337Z,99.90
2018-05-21T03:47:59.835Z,99.90
2018-05-21T03:50:27.362Z,99.90
2018-05-21T03:52:54.860Z,99.90
2018-05-21T03:55:22.385Z,99.90
2018-05-21T03:57:50.672Z,99.90
2018-05-21T04:00:30.893Z,99.90
2018-05-21T04:03:10.093Z,99.90
2018-05-21T04:05:38.398Z,99.90
2018-05-21T04:08:05.898Z,99.90
2018-05-21T04:10:33.393Z,99.90
2018-05-21T04:13:00.916Z,99.90
2018-05-21T04:15:28.414Z,99.90
2018-05-21T04:17:55.933Z,99.90
2018-05-21T04:20:23.426Z,99.90
2018-05-21T04:22:50.950Z,99.90
2018-05-21T04:25:18.437Z,99.90
2018-05-21T04:27:46.721Z,99.90
2018-05-21T04:30:14.222Z,99.90
2018-05-21T04:32:41.740Z,99.90
2018-05-21T04:35:09.222Z,99.90
2018-05-21T04:37:36.745Z,99.90
2018-05-21T04:40:04.221Z,99.90
2018-05-21T04:42:31.747Z,99.90
2018-05-21T04:44:59.242Z,99.90
2018-05-21T04:47:27.530Z,99.90
2018-05-21T04:49:55.820Z,99.90
2018-05-21T04:52:23.323Z,99.90
2018-05-21T04:54:50.849Z,99.90
2018-05-21T04:57:19.117Z,99.90
2018-05-21T04:59:46.655Z,99.90
2018-05-21T05:02:14.136Z,99.90
2018-05-21T05:04:41.671Z,99.90
2018-05-21T05:07:09.157Z,99.90
2018-05-21T05:09:36.684Z,99.90
2018-05-21T05:12:04.166Z,99.90
2018-05-21T05:14:32.450Z,99.90
2018-05-21T05:16:59.937Z,99.90
2018-05-21T05:19:28.227Z,99.90
2018-05-21T05:21:56.481Z,99.90
2018-05-21T05:24:24.008Z,99.90
2018-05-21T05:26:51.502Z,99.90
2018-05-21T05:29:19.015Z,99.90
2018-05-21T05:31:47.264Z,99.90
2018-05-21T05:34:14.813Z,99.90
2018-05-21T05:36:42.914Z,99.90
2018-05-21T05:39:10.396Z,99.90
2018-05-21T05:41:37.905Z,99.90
2018-05-21T05:44:05.385Z,99.20
2018-05-21T05:46:33.666Z,91.70
2018-05-21T05:49:01.918Z,83.70
2018-05-21T05:51:29.439Z,84.40
2018-05-21T05:53:57.689Z,74.80
2018-05-21T05:56:25.205Z,74.80
2018-05-21T05:58:53.441Z,59.70
2018-05-21T06:01:20.957Z,59.60
2018-05-21T06:03:49.194Z,50.10
2018-05-21T06:06:16.701Z,50.10
2018-05-21T06:08:44.185Z,46.90
2018-05-21T06:11:12.462Z,43.30
2018-05-21T06:13:40.011Z,43.30
2018-05-21T06:16:07.471Z,42.60
2018-05-21T06:18:34.951Z,44.20
2018-05-21T06:21:02.466Z,44.80
2018-05-21T06:23:30.713Z,45.70
2018-05-21T06:25:58.345Z,45.70
2018-05-21T06:28:25.733Z,45.00
2018-05-21T06:30:53.237Z,43.70
2018-05-21T06:33:20.719Z,42.90
2018-05-21T06:35:48.235Z,42.30
2018-05-21T06:38:15.769Z,41.70
2018-05-21T06:43:17.927Z,41.30
2018-05-21T06:45:45.405Z,40.10
2018-05-21T06:48:12.921Z,39.70
2018-05-21T06:50:40.455Z,38.70
2018-05-21T06:53:07.994Z,38.30
2018-05-21T06:55:35.469Z,38.70
2018-05-21T06:58:02.993Z,38.20
2018-05-21T07:00:30.478Z,38.10
2018-05-21T07:02:58.772Z,37.80
2018-05-21T07:05:26.260Z,37.80
2018-05-21T07:07:53.863Z,38.00
2018-05-21T07:10:21.280Z,37.60
2018-05-21T07:12:48.793Z,38.50
2018-05-21T07:15:16.272Z,38.00
2018-05-21T07:17:43.789Z,36.90
2018-05-21T07:20:11.275Z,35.30
2018-05-21T07:22:39.585Z,34.30
2018-05-21T07:25:07.074Z,34.30
2018-05-21T07:27:34.564Z,33.20
2018-05-21T07:30:02.082Z,33.80
2018-05-21T07:32:30.336Z,35.90
2018-05-21T07:34:57.854Z,35.90
2018-05-21T07:37:25.341Z,35.80
2018-05-21T07:39:52.854Z,34.40
2018-05-21T07:42:20.344Z,34.50
2018-05-21T07:44:48.725Z,35.60
2018-05-21T07:47:16.133Z,35.60
2018-05-21T07:49:43.653Z,35.70
2018-05-21T07:52:11.139Z,34.90
2018-05-21T07:54:38.664Z,34.70
2018-05-21T07:57:06.156Z,35.80
2018-05-21T07:59:33.686Z,37.00
2018-05-21T08:02:01.165Z,36.50
2018-05-21T08:04:28.695Z,37.10
2018-05-21T08:06:56.181Z,36.70
2018-05-21T08:09:23.697Z,36.50
2018-05-21T08:11:51.191Z,36.20
2018-05-21T08:14:18.729Z,36.30
2018-05-21T08:16:47.016Z,37.10
2018-05-21T08:19:14.498Z,37.10
2018-05-21T08:21:42.021Z,36.70
2018-05-21T08:24:09.501Z,36.10
2018-05-21T08:26:37.790Z,36.00
2018-05-21T08:29:06.038Z,36.20
2018-05-21T08:31:33.571Z,36.10
2018-05-21T08:34:01.113Z,36.00
2018-05-21T08:36:28.638Z,35.90
2018-05-21T08:38:56.129Z,36.60
2018-05-21T08:41:23.654Z,35.30
2018-05-21T08:43:51.142Z,34.60
2018-05-21T08:46:18.670Z,35.10
2018-05-21T08:48:46.982Z,38.40
2018-05-21T08:51:14.453Z,38.40
2018-05-21T08:53:41.943Z,38.20
2018-05-21T08:56:09.486Z,38.30
2018-05-21T08:58:37.827Z,40.00
2018-05-21T09:01:05.289Z,40.00
2018-05-21T09:03:32.785Z,39.70
2018-05-21T09:06:00.267Z,38.20
2018-05-21T09:08:27.787Z,37.80
2018-05-21T09:10:55.278Z,36.80
2018-05-21T09:13:22.799Z,37.30
2018-05-21T09:15:51.047Z,37.60
2018-05-21T09:18:18.567Z,37.50
2018-05-21T09:20:46.062Z,38.30
2018-05-21T09:23:13.601Z,38.20
2018-05-21T09:25:43.033Z,37.60
2018-05-21T09:28:10.653Z,37.60
2018-05-21T09:30:38.143Z,37.80
2018-05-21T09:33:05.675Z,37.90
2018-05-21T09:35:33.170Z,37.40
2018-05-21T09:38:00.698Z,36.50
2018-05-21T09:40:28.174Z,36.10
2018-05-21T09:42:55.697Z,36.20
2018-05-21T09:45:23.194Z,35.00
2018-05-21T09:47:51.486Z,34.30
2018-05-21T09:50:19.735Z,34.00
2018-05-21T09:52:47.245Z,34.00
2018-05-21T09:55:14.778Z,35.00
2018-05-21T09:57:42.270Z,34.90
2018-05-21T10:00:09.842Z,35.00
2018-05-21T10:02:37.342Z,34.40
2018-05-21T10:05:04.982Z,36.30
2018-05-21T10:07:32.501Z,35.70
2018-05-21T10:10:00.129Z,35.70
2018-05-21T10:12:28.454Z,34.70
2018-05-21T10:14:55.966Z,34.70
2018-05-21T10:17:23.447Z,34.80
2018-05-21T10:19:51.041Z,35.00
2018-05-21T10:22:18.533Z,36.60
2018-05-21T10:24:46.852Z,35.90
2018-05-21T10:27:14.343Z,35.90
2018-05-21T10:29:41.827Z,35.90
2018-05-21T10:32:09.337Z,35.20
2018-05-21T10:34:37.593Z,36.00
2018-05-21T10:37:05.161Z,36.00
2018-05-21T10:39:32.650Z,34.90
2018-05-21T10:42:00.174Z,34.40
2018-05-21T10:44:27.656Z,35.20
2018-05-21T10:46:55.242Z,36.00
2018-05-21T10:49:22.893Z,35.90
2018-05-21T10:51:50.429Z,35.90
2018-05-21T10:54:18.934Z,36.00
2018-05-21T10:56:57.816Z,36.60
2018-05-21T10:59:25.334Z,36.90
2018-05-21T11:01:52.864Z,38.30
2018-05-21T11:04:20.366Z,38.30
2018-05-21T11:06:48.645Z,37.60
2018-05-21T11:09:16.131Z,37.20
2018-05-21T11:11:43.691Z,37.70
2018-05-21T11:14:11.177Z,37.40
2018-05-21T11:16:39.422Z,37.20
2018-05-21T11:19:06.974Z,37.20
2018-05-21T11:21:34.458Z,36.40
2018-05-21T11:24:02.024Z,36.40
2018-05-21T11:26:29.598Z,36.30
2018-05-21T11:28:57.139Z,36.60
2018-05-21T11:31:24.626Z,36.20
2018-05-21T11:33:52.221Z,36.50
2018-05-21T11:36:19.696Z,37.10
2018-05-21T11:38:48.151Z,37.00
2018-05-21T11:41:15.630Z,36.80
2018-05-21T11:43:43.290Z,36.50
2018-05-21T11:46:11.579Z,36.80
2018-05-21T11:48:39.101Z,36.90
2018-05-21T11:51:06.623Z,38.10
2018-05-21T11:53:34.929Z,38.30
2018-05-21T11:56:02.417Z,38.30
2018-05-21T11:58:29.954Z,36.50
2018-05-21T12:00:57.462Z,37.20
2018-05-21T12:03:24.945Z,36.00
2018-05-21T12:05:52.453Z,35.90
2018-05-21T12:08:19.930Z,35.00
2018-05-21T12:10:47.449Z,35.90
2018-05-21T12:13:14.932Z,36.40
2018-05-21T12:15:42.445Z,37.30
2018-05-21T12:18:10.705Z,37.70
2018-05-21T12:20:38.237Z,37.70
2018-05-21T12:23:05.727Z,37.30
2018-05-21T12:25:33.258Z,36.90
2018-05-21T12:28:00.740Z,37.70
2018-05-21T12:30:28.253Z,36.90
2018-05-21T12:32:55.738Z,37.70
2018-05-21T12:35:23.217Z,38.00
2018-05-21T12:37:51.525Z,37.60
2018-05-21T12:40:19.819Z,38.50
2018-05-21T12:42:47.309Z,38.40
2018-05-21T12:45:14.829Z,38.20
2018-05-21T12:47:42.313Z,39.00
2018-05-21T12:50:09.861Z,38.60
2018-05-21T12:52:37.340Z,38.20
2018-05-21T12:55:04.827Z,38.40
2018-05-21T12:57:33.126Z,39.20
2018-05-21T13:00:01.401Z,39.00
2018-05-21T13:02:28.917Z,38.90
2018-05-21T13:04:56.421Z,39.80
2018-05-21T13:07:23.943Z,39.00
2018-05-21T13:09:52.186Z,38.60
2018-05-21T13:12:19.703Z,38.70
2018-05-21T13:14:47.189Z,39.00
2018-05-21T13:17:14.718Z,38.00
2018-05-21T13:19:42.204Z,37.50
2018-05-21T13:22:10.495Z,37.40
2018-05-21T13:24:37.989Z,36.70
2018-05-21T13:27:05.505Z,35.90
2018-05-21T13:29:32.989Z,36.70
2018-05-21T13:32:00.514Z,37.50
2018-05-21T13:34:27.990Z,37.20
2018-05-21T13:36:55.566Z,37.00
2018-05-21T13:39:23.042Z,37.20
2018-05-21T13:41:50.524Z,36.80
2018-05-21T13:44:18.045Z,37.20
2018-05-21T13:46:46.305Z,37.30
2018-05-21T13:49:13.828Z,37.30
2018-05-21T13:51:41.322Z,37.00
2018-05-21T13:54:08.847Z,36.30
2018-05-21T13:56:37.105Z,36.20
2018-05-21T13:59:04.657Z,36.20
2018-05-21T14:01:32.212Z,37.00
2018-05-21T14:03:59.740Z,36.30
2018-05-21T14:06:27.989Z,35.80
2018-05-21T14:08:55.513Z,35.80
2018-05-21T14:11:23.760Z,34.00
2018-05-21T14:13:51.281Z,34.10
2018-05-21T14:16:18.772Z,34.50
2018-05-21T14:18:46.296Z,34.80
2018-05-21T14:21:13.788Z,34.90
2018-05-21T14:23:42.070Z,35.60
2018-05-21T14:26:10.321Z,36.20
2018-05-21T14:28:37.846Z,35.50
2018-05-21T14:31:05.357Z,35.00
2018-05-21T14:33:32.840Z,34.90
2018-05-21T14:36:00.358Z,33.50
2018-05-21T14:38:27.844Z,34.40
2018-05-21T14:40:55.369Z,34.20
2018-05-21T14:43:23.633Z,35.30
2018-05-21T14:45:51.182Z,35.30
2018-05-21T14:48:18.739Z,35.90
2018-05-21T14:50:46.211Z,35.70
2018-05-21T14:53:13.693Z,35.30
2018-05-21T14:55:41.205Z,35.70
2018-05-21T14:58:08.688Z,35.70
2018-05-21T15:00:36.991Z,36.80
2018-05-21T15:03:05.242Z,35.00
2018-05-21T15:05:32.734Z,35.00
2018-05-21T15:08:00.245Z,35.70
2018-05-21T15:10:27.725Z,35.70
2018-05-21T15:12:55.241Z,35.80
2018-05-21T15:15:22.721Z,35.30
2018-05-21T15:17:50.236Z,35.40
2018-05-21T15:20:17.712Z,35.10
2018-05-21T15:22:45.289Z,35.10
2018-05-21T15:25:12.765Z,34.30
2018-05-21T15:27:40.349Z,34.60
2018-05-21T15:30:07.826Z,35.10
2018-05-21T15:32:35.337Z,35.70
2018-05-21T15:35:03.598Z,36.50
2018-05-21T15:37:31.134Z,36.50
2018-05-21T15:39:58.614Z,36.40
2018-05-21T15:42:26.113Z,36.80
2018-05-21T15:44:53.655Z,36.40
2018-05-21T15:47:21.153Z,35.70
2018-05-21T15:49:48.665Z,35.50
2018-05-21T15:52:16.916Z,35.60
2018-05-21T15:54:44.437Z,35.60
2018-05-21T15:57:11.929Z,35.50
2018-05-21T15:59:39.449Z,35.70
2018-05-21T16:02:07.705Z,36.50
2018-05-21T16:04:35.217Z,36.40
2018-05-21T16:07:03.469Z,37.80
2018-05-21T16:09:30.982Z,37.10
2018-05-21T16:11:59.249Z,37.00
2018-05-21T16:14:26.761Z,37.00
2018-05-21T16:16:54.250Z,37.00
2018-05-21T16:19:21.765Z,36.70
2018-05-21T16:21:49.249Z,36.60
2018-05-21T16:24:17.529Z,36.60
2018-05-21T16:26:45.018Z,36.60
2018-05-21T16:29:13.269Z,36.10
2018-05-21T16:31:40.793Z,36.00
2018-05-21T16:34:08.281Z,36.30
2018-05-21T16:36:35.798Z,36.40
2018-05-21T16:39:03.290Z,36.50
2018-05-21T16:41:31.625Z,35.60
2018-05-21T16:43:59.838Z,35.50
2018-05-21T16:46:27.365Z,35.40
2018-05-21T16:48:54.858Z,35.70
2018-05-21T16:51:22.378Z,35.90
2018-05-21T16:53:49.874Z,35.90
2018-05-21T16:56:17.390Z,36.30
2018-05-21T16:58:44.881Z,36.90
2018-05-21T17:01:12.403Z,37.80
2018-05-21T17:03:39.885Z,38.60
2018-05-21T17:06:07.382Z,38.70
2018-05-21T17:08:34.900Z,38.50
2018-05-21T17:11:02.406Z,38.50
2018-05-21T17:13:29.950Z,38.80
2018-05-21T17:15:57.436Z,39.10
2018-05-21T17:18:24.958Z,39.60
2018-05-21T17:20:53.218Z,39.50
2018-05-21T17:23:20.758Z,39.50
2018-05-21T17:25:48.252Z,39.60
2018-05-21T17:28:15.765Z,39.10
2018-05-21T17:30:44.016Z,39.70
2018-05-21T17:33:11.536Z,39.60
2018-05-21T17:35:39.083Z,39.70
2018-05-21T17:38:06.578Z,40.00
2018-05-21T17:40:34.831Z,40.40
2018-05-21T17:43:02.370Z,40.40
2018-05-21T17:45:29.859Z,40.40
2018-05-21T17:47:57.740Z,40.40
2018-05-21T17:50:25.279Z,40.70
2018-05-21T17:52:52.765Z,41.00
2018-05-21T17:55:20.288Z,41.30
2018-05-21T17:57:48.108Z,41.50
2018-05-21T18:00:16.483Z,45.00
2018-05-21T18:02:43.980Z,44.50
2018-05-21T18:05:11.485Z,49.60
2018-05-21T18:07:39.534Z,50.60
2018-05-21T18:10:07.047Z,52.30
2018-05-21T18:12:34.542Z,54.80
2018-05-21T18:15:02.795Z,57.10
2018-05-21T18:17:30.301Z,57.10
2018-05-21T18:19:58.548Z,61.60
2018-05-21T18:22:26.928Z,61.60
2018-05-21T18:24:54.410Z,61.70
2018-05-21T18:27:22.665Z,62.40
2018-05-21T18:29:50.181Z,62.40
2018-05-21T18:32:17.694Z,64.10
2018-05-21T18:34:45.339Z,63.10
2018-05-21T18:37:12.837Z,64.20
2018-05-21T18:39:40.333Z,65.00
2018-05-21T18:42:07.865Z,65.80
2018-05-21T18:44:36.118Z,69.20
2018-05-21T18:47:03.644Z,69.20
2018-05-21T18:49:31.235Z,69.60
2018-05-21T18:51:58.749Z,70.50
2018-05-21T18:54:26.233Z,71.50
2018-05-21T18:56:54.701Z,71.90
2018-05-21T18:59:22.243Z,73.10
2018-05-21T19:01:49.758Z,73.50
2018-05-21T19:04:17.249Z,75.50
2018-05-21T19:06:45.541Z,78.10
2018-05-21T19:09:13.811Z,79.40
2018-05-21T19:11:41.382Z,79.40
2018-05-21T19:14:08.865Z,80.20
2018-05-21T19:16:36.409Z,81.20
2018-05-21T19:19:03.920Z,82.10
2018-05-21T19:21:32.325Z,84.30
2018-05-21T19:23:59.813Z,84.30
2018-05-21T19:26:27.382Z,85.60
2018-05-21T19:28:54.898Z,86.60
2018-05-21T19:31:22.390Z,87.30
2018-05-21T19:33:50.722Z,86.80
2018-05-21T19:36:18.225Z,87.40
2018-05-21T19:38:45.738Z,87.70
2018-05-21T19:41:13.234Z,88.30
2018-05-21T19:43:40.757Z,88.30
2018-05-21T19:46:08.356Z,88.00
2018-05-21T19:48:35.875Z,88.80
2018-05-21T19:51:03.373Z,88.70
2018-05-21T19:53:30.891Z,88.40
2018-05-21T19:55:58.389Z,88.90
2018-05-21T19:58:25.913Z,90.10
2018-05-21T20:00:53.399Z,87.40
2018-05-21T20:03:20.934Z,83.70
2018-05-21T20:05:48.421Z,83.50
2018-05-21T20:08:16.677Z,83.20
2018-05-21T20:10:44.194Z,83.20
2018-05-21T20:13:11.669Z,83.50
2018-05-21T20:15:39.209Z,83.30
2018-05-21T20:18:07.161Z,82.80
2018-05-21T20:20:41.497Z,83.00
2018-05-21T20:23:09.007Z,83.10
2018-05-21T20:25:36.521Z,83.70
2018-05-21T20:28:04.009Z,84.40
2018-05-21T20:30:31.504Z,84.80
2018-05-21T20:32:58.986Z,85.70
2018-05-21T20:35:27.274Z,87.00
2018-05-21T20:37:54.761Z,87.00
2018-05-21T20:40:23.045Z,87.80
2018-05-21T20:42:51.295Z,88.30
2018-05-21T20:45:18.821Z,88.30
2018-05-21T20:47:46.346Z,88.60
2018-05-21T20:50:13.868Z,88.00
2018-05-21T20:52:41.418Z,87.80
2018-05-21T20:55:09.673Z,88.60
2018-05-21T20:57:37.205Z,88.60
2018-05-21T21:00:04.693Z,87.60
2018-05-21T21:02:32.218Z,87.70
2018-05-21T21:04:59.745Z,88.10
2018-05-21T21:07:27.819Z,88.60
2018-05-21T21:09:56.362Z,89.70
2018-05-21T21:12:23.885Z,90.20
2018-05-21T21:14:51.389Z,90.60
2018-05-21T21:17:19.689Z,91.50
2018-05-21T21:19:47.261Z,91.40
2018-05-21T21:22:14.773Z,92.00
2018-05-21T21:24:42.273Z,92.40
2018-05-21T21:27:09.927Z,93.00
2018-05-21T21:29:37.416Z,93.20
2018-05-21T21:32:04.945Z,93.70
2018-05-21T21:34:32.449Z,92.90
2018-05-21T21:36:59.985Z,92.80
2018-05-21T21:39:28.242Z,92.40
2018-05-21T21:41:55.885Z,92.40
2018-05-21T21:44:23.399Z,92.60
2018-05-21T21:46:50.881Z,93.00
2018-05-21T21:49:18.398Z,93.40
2018-05-21T21:51:45.890Z,93.10
2018-05-21T21:54:13.414Z,93.50
2018-05-21T21:56:41.667Z,92.60
2018-05-21T21:59:09.177Z,92.60
2018-05-21T22:01:37.429Z,91.60
2018-05-21T22:04:04.949Z,91.60
2018-05-21T22:06:32.437Z,91.10
2018-05-21T22:08:59.955Z,90.70
2018-05-21T22:11:27.429Z,90.30
2018-05-21T22:13:55.074Z,90.20
2018-05-21T22:16:22.614Z,90.20
2018-05-21T22:18:50.094Z,90.30
2018-05-21T22:21:17.627Z,90.30
2018-05-21T22:23:45.140Z,90.40
2018-05-21T22:26:12.664Z,90.50
2018-05-21T22:28:40.147Z,90.60
2018-05-21T22:31:07.676Z,90.80
2018-05-21T22:33:35.151Z,90.00
2018-05-21T22:36:02.669Z,90.00
2018-05-21T22:38:30.150Z,89.70
2018-05-21T22:40:57.661Z,88.30
2018-05-21T22:43:25.144Z,87.70
2018-05-21T22:45:52.665Z,87.50
2018-05-21T22:48:20.153Z,87.10
2018-05-21T22:50:47.674Z,87.70
2018-05-21T22:53:15.173Z,89.90
2018-05-21T22:55:42.707Z,89.30
2018-05-21T22:58:10.194Z,89.60
2018-05-21T23:00:38.446Z,90.20
2018-05-21T23:03:05.973Z,90.10
2018-05-21T23:05:33.454Z,90.10
2018-05-21T23:08:00.969Z,90.10
2018-05-21T23:10:28.454Z,90.30
2018-05-21T23:12:55.977Z,90.00
2018-05-21T23:15:23.693Z,89.70
2018-05-21T23:17:51.217Z,88.60
2018-05-21T23:20:18.702Z,88.30
2018-05-21T23:22:46.218Z,88.10
2018-05-21T23:25:13.700Z,88.00
2018-05-21T23:27:41.973Z,88.50
2018-05-21T23:30:09.481Z,88.40
2018-05-21T23:32:36.969Z,89.00
2018-05-21T23:35:04.497Z,89.50
2018-05-21T23:37:32.021Z,90.10
2018-05-21T23:39:59.523Z,90.80
2018-05-21T23:42:27.053Z,91.00
2018-05-21T23:44:54.539Z,91.40
2018-05-21T23:47:22.066Z,91.90
2018-05-21T23:49:49.573Z,92.30
2018-05-21T23:52:17.059Z,92.60
2018-05-21T23:54:44.577Z,92.80
2018-05-21T23:57:12.849Z,93.10
2018-05-21T23:59:40.369Z,93.10
